Terminal Aerodrome Forecast
Issued by NWS

Home | Current Version | Previous Version | Text Only | Print | Product List | Glossary On
Versions: 1 2 3 4 5 6 7 8 9 10 11 12 13 14 15 16 17 18 19 20 21 22 23 24 25 26 27 28 29 30 31 32 33 34 35 36 37 38 39 40 41 42 43 44 45 46 47 48
000
FTUS41 KALY 270745 AAA
TAFPSF
TAF AMD
KPSF 270745Z 2708/2806 06004KT 5SM -FZRA BR OVC006
      TEMPO 2708/2709 5SM -RA BR OVC007
     FM270900 12008KT 2SM -RA BR OVC008 WS020/19030KT
     FM271800 18005KT P6SM -RA OVC007 PROB30 2718/2722 4SM -RA
      OVC005
     FM280000 00000KT 4SM BR OVC005=

USA.gov is the U.S. government's official web portal to all federal, state and local government web resources and services.